createdAt,value
2022-08-18T00:02:06.090Z,24.76
2022-08-18T00:04:45.263Z,24.70
2022-08-18T00:07:22.972Z,24.67
2022-08-18T00:09:51.705Z,24.67
2022-08-18T00:12:26.795Z,24.65
2022-08-18T00:14:56.627Z,24.66
2022-08-18T00:17:24.735Z,24.66
2022-08-18T00:19:52.700Z,24.65
2022-08-18T00:22:22.171Z,24.66
2022-08-18T00:24:55.489Z,24.67
2022-08-18T00:27:28.542Z,24.51
2022-08-18T00:29:58.272Z,24.41
2022-08-18T00:32:30.272Z,24.31
2022-08-18T00:34:58.012Z,24.13
2022-08-18T00:37:25.557Z,24.16
2022-08-18T00:39:54.721Z,24.12
2022-08-18T00:42:31.111Z,24.10
2022-08-18T00:45:05.259Z,24.13
2022-08-18T00:47:52.170Z,24.04
2022-08-18T00:50:28.393Z,24.00
2022-08-18T00:53:39.479Z,23.90
2022-08-18T00:56:13.682Z,23.67
2022-08-18T00:58:46.981Z,23.58
2022-08-18T01:01:17.079Z,23.59
2022-08-18T01:03:53.978Z,23.59
2022-08-18T01:06:36.921Z,23.42
2022-08-18T01:09:04.979Z,23.34
2022-08-18T01:11:38.296Z,23.33
2022-08-18T01:14:09.364Z,23.22
2022-08-18T01:16:56.739Z,23.15
2022-08-18T01:19:45.696Z,23.07
2022-08-18T01:22:22.920Z,23.01
2022-08-18T01:25:11.240Z,22.90
2022-08-18T01:27:41.933Z,22.84
2022-08-18T01:30:13.568Z,22.69
2022-08-18T01:32:42.025Z,22.65
2022-08-18T01:35:11.961Z,22.75
2022-08-18T01:37:41.462Z,22.85
2022-08-18T01:41:24.656Z,22.73
2022-08-18T01:43:05.262Z,22.76
2022-08-18T01:45:33.532Z,22.84
2022-08-18T01:48:01.693Z,22.79
2022-08-18T01:50:30.365Z,22.88
2022-08-18T01:52:57.990Z,22.96
2022-08-18T01:55:28.449Z,23.06
2022-08-18T01:57:56.371Z,23.13
2022-08-18T02:00:25.531Z,23.23
2022-08-18T02:03:02.101Z,23.34
2022-08-18T02:05:36.989Z,23.34
2022-08-18T02:08:06.456Z,23.33
2022-08-18T02:10:35.188Z,23.23
2022-08-18T02:13:02.874Z,23.14
2022-08-18T02:15:30.637Z,23.12
2022-08-18T02:17:58.236Z,23.10
2022-08-18T02:20:26.064Z,23.18
2022-08-18T02:22:53.590Z,23.35
2022-08-18T02:25:21.491Z,23.30
2022-08-18T02:27:49.514Z,23.39
2022-08-18T02:30:19.508Z,23.34
2022-08-18T02:32:47.225Z,23.26
2022-08-18T02:35:15.297Z,23.32
2022-08-18T02:37:48.226Z,23.10
2022-08-18T02:40:17.109Z,23.13
2022-08-18T02:42:46.441Z,22.94
2022-08-18T02:45:14.921Z,22.72
2022-08-18T02:47:44.255Z,22.32
2022-08-18T02:50:13.831Z,21.77
2022-08-18T02:52:41.624Z,21.48
2022-08-18T02:55:11.039Z,21.46
2022-08-18T02:57:43.572Z,21.20
2022-08-18T03:00:14.587Z,21.12
2022-08-18T03:02:52.166Z,21.21
2022-08-18T03:05:20.344Z,21.04
2022-08-18T03:07:47.972Z,20.94
2022-08-18T03:10:32.760Z,21.05
2022-08-18T03:13:02.691Z,21.08
2022-08-18T03:15:30.838Z,21.05
2022-08-18T03:17:58.785Z,20.84
2022-08-18T03:20:30.100Z,20.58
2022-08-18T03:23:05.438Z,20.42
2022-08-18T03:25:43.993Z,20.42
2022-08-18T03:28:12.372Z,20.46
2022-08-18T03:30:40.440Z,20.36
2022-08-18T03:33:30.574Z,20.24
2022-08-18T03:36:09.929Z,20.26
2022-08-18T03:38:37.843Z,20.31
2022-08-18T03:41:08.944Z,20.16
2022-08-18T03:43:51.005Z,20.14
2022-08-18T03:46:22.046Z,20.13
2022-08-18T03:48:50.508Z,20.28
2022-08-18T03:51:26.792Z,20.42
2022-08-18T03:54:00.676Z,20.60
2022-08-18T03:56:35.646Z,20.44
2022-08-18T03:59:12.199Z,20.51
2022-08-18T04:01:42.476Z,20.66
2022-08-18T04:04:13.689Z,20.79
2022-08-18T04:06:50.461Z,20.84
2022-08-18T04:09:19.125Z,20.86
2022-08-18T04:11:47.122Z,20.95
2022-08-18T04:14:20.448Z,20.92
2022-08-18T04:16:49.091Z,20.99
2022-08-18T04:19:23.138Z,20.93
2022-08-18T04:21:58.223Z,21.00
2022-08-18T04:24:31.154Z,21.06
2022-08-18T04:27:02.006Z,21.13
2022-08-18T04:29:29.956Z,21.13
2022-08-18T04:32:01.694Z,21.00
2022-08-18T04:34:29.411Z,21.02
2022-08-18T04:36:57.562Z,21.13
2022-08-18T04:39:25.830Z,21.21
2022-08-18T04:41:53.506Z,21.35
2022-08-18T04:44:22.197Z,21.35
2022-08-18T04:46:52.507Z,21.35
2022-08-18T04:49:26.063Z,21.40
2022-08-18T04:52:34.362Z,21.31
2022-08-18T04:55:02.021Z,21.39
2022-08-18T04:57:34.930Z,21.39
2022-08-18T05:00:06.386Z,21.46
2022-08-18T05:02:35.058Z,21.35
2022-08-18T05:05:04.246Z,21.40
2022-08-18T05:07:32.955Z,21.29
2022-08-18T05:10:00.455Z,21.35
2022-08-18T05:12:29.160Z,21.51
2022-08-18T05:14:57.428Z,21.35
2022-08-18T05:17:30.196Z,21.42
2022-08-18T05:20:00.042Z,21.59
2022-08-18T05:22:30.496Z,21.56
2022-08-18T05:25:00.937Z,21.73
2022-08-18T05:27:33.454Z,21.79
2022-08-18T05:30:03.202Z,21.91
2022-08-18T05:32:47.262Z,21.94
2022-08-18T05:35:23.505Z,22.08
2022-08-18T05:38:20.934Z,22.25
2022-08-18T05:41:06.439Z,22.39
2022-08-18T05:43:35.833Z,22.29
2022-08-18T05:46:10.522Z,22.57
2022-08-18T05:48:43.080Z,22.91
2022-08-18T05:51:18.516Z,23.04
2022-08-18T05:54:05.782Z,23.25
2022-08-18T05:56:49.233Z,23.11
2022-08-18T05:59:22.738Z,23.02
2022-08-18T06:01:54.459Z,22.97
2022-08-18T06:04:46.684Z,23.10
2022-08-18T06:07:19.721Z,22.97
2022-08-18T06:09:54.248Z,22.90
2022-08-18T06:12:47.134Z,23.10
2022-08-18T06:15:43.626Z,23.24
2022-08-18T06:18:55.249Z,23.41
2022-08-18T06:21:28.730Z,23.69
2022-08-18T06:24:00.861Z,23.67
2022-08-18T06:27:02.097Z,24.03
2022-08-18T06:29:47.839Z,24.11
2022-08-18T06:32:37.018Z,24.05
2022-08-18T06:35:18.356Z,24.27
2022-08-18T06:38:20.199Z,24.45
2022-08-18T06:40:49.302Z,24.55
2022-08-18T06:43:18.134Z,24.32
2022-08-18T06:45:52.102Z,24.34
2022-08-18T06:48:31.840Z,24.02
2022-08-18T06:51:03.015Z,23.85
2022-08-18T06:53:55.670Z,23.75
2022-08-18T06:56:41.193Z,23.57
2022-08-18T06:59:23.607Z,23.58
2022-08-18T07:02:02.864Z,23.54
2022-08-18T07:04:57.922Z,23.27
2022-08-18T07:07:40.529Z,22.93
2022-08-18T07:10:34.072Z,22.51
2022-08-18T07:13:27.747Z,22.20
2022-08-18T07:16:40.269Z,22.18
2022-08-18T07:19:20.578Z,21.87
2022-08-18T07:22:03.847Z,21.13
2022-08-18T07:24:44.390Z,20.93
2022-08-18T07:27:18.635Z,20.81
2022-08-18T07:30:20.931Z,20.75
2022-08-18T07:32:55.411Z,20.93
2022-08-18T07:36:16.590Z,21.01
2022-08-18T07:38:54.852Z,21.18
2022-08-18T07:41:33.340Z,21.15
2022-08-18T07:44:16.918Z,21.26
2022-08-18T07:47:02.405Z,21.19
2022-08-18T07:49:36.826Z,21.50
2022-08-18T07:52:35.938Z,21.57
2022-08-18T07:55:28.846Z,21.42
2022-08-18T07:58:15.845Z,21.44
2022-08-18T08:01:00.029Z,21.46
2022-08-18T08:03:32.135Z,21.43
2022-08-18T08:06:10.256Z,21.38
2022-08-18T08:08:44.383Z,21.21
2022-08-18T08:11:17.847Z,20.94
2022-08-18T08:14:26.135Z,21.02
2022-08-18T08:17:07.992Z,21.29
2022-08-18T08:20:01.325Z,21.43
2022-08-18T08:22:38.769Z,21.61
2022-08-18T08:25:44.514Z,21.58
2022-08-18T08:28:37.115Z,21.87
2022-08-18T08:34:32.778Z,22.22
2022-08-18T08:37:05.167Z,22.38
2022-08-18T08:39:42.239Z,22.37
2022-08-18T08:42:31.844Z,22.49
2022-08-18T08:45:09.217Z,22.88
2022-08-18T08:47:43.472Z,23.03
2022-08-18T08:50:16.864Z,23.14
2022-08-18T08:53:08.841Z,23.15
2022-08-18T08:55:42.302Z,23.31
2022-08-18T08:58:19.326Z,23.50
2022-08-18T09:00:49.182Z,23.55
2022-08-18T09:03:47.421Z,23.52
2022-08-18T09:06:55.197Z,23.69
2022-08-18T09:09:28.497Z,24.12
2022-08-18T09:12:19.693Z,24.02
2022-08-18T09:15:09.785Z,23.99
2022-08-18T09:18:05.163Z,24.26
2022-08-18T09:20:36.026Z,24.05
2022-08-18T09:23:31.010Z,24.05
2022-08-18T09:26:39.325Z,23.92
2022-08-18T09:29:45.666Z,23.71
2022-08-18T09:32:19.326Z,23.62
2022-08-18T09:35:05.323Z,23.49
2022-08-18T09:38:24.085Z,23.17
2022-08-18T09:41:25.277Z,22.95
2022-08-18T09:43:56.261Z,22.94
2022-08-18T09:46:51.826Z,22.95
2022-08-18T09:49:22.528Z,22.89
2022-08-18T09:51:52.856Z,22.65
2022-08-18T09:54:29.564Z,22.34
2022-08-18T09:57:19.598Z,22.23
2022-08-18T09:59:49.166Z,22.07
2022-08-18T10:02:28.537Z,21.65
2022-08-18T10:05:21.278Z,21.33
2022-08-18T10:08:03.957Z,21.26
2022-08-18T10:11:01.646Z,21.09
2022-08-18T10:13:51.572Z,21.19
2022-08-18T10:16:31.159Z,21.35
2022-08-18T10:19:48.233Z,21.30
2022-08-18T10:22:40.313Z,21.36
2022-08-18T10:27:59.646Z,20.70
2022-08-18T10:30:32.621Z,19.91
2022-08-18T10:33:17.787Z,19.81
2022-08-18T10:35:57.779Z,19.96
2022-08-18T10:38:37.052Z,20.04
2022-08-18T10:41:21.400Z,20.27
2022-08-18T10:43:55.325Z,20.36
2022-08-18T10:46:31.905Z,20.54
2022-08-18T10:49:04.377Z,20.68
2022-08-18T10:51:59.875Z,20.62
2022-08-18T10:54:51.141Z,20.70
2022-08-18T10:57:28.964Z,20.90
2022-08-18T11:00:13.861Z,20.84
2022-08-18T11:03:02.731Z,20.76
2022-08-18T11:05:36.207Z,21.18
2022-08-18T11:08:15.716Z,21.27
2022-08-18T11:11:33.147Z,21.54
2022-08-18T11:14:24.238Z,21.50
2022-08-18T11:17:14.073Z,21.49
2022-08-18T11:19:46.869Z,21.71
2022-08-18T11:22:35.678Z,21.87
2022-08-18T11:25:19.406Z,21.98
2022-08-18T11:27:49.153Z,22.23
2022-08-18T11:30:19.885Z,21.88
2022-08-18T11:33:02.696Z,22.22
2022-08-18T11:35:45.347Z,22.67
2022-08-18T11:38:20.653Z,23.40
2022-08-18T11:41:11.168Z,24.22
2022-08-18T11:46:38.925Z,24.98
2022-08-18T11:49:26.218Z,25.44
2022-08-18T11:52:25.072Z,25.77
2022-08-18T11:55:14.555Z,26.15
2022-08-18T11:57:59.217Z,26.78
2022-08-18T12:00:43.307Z,26.38
2022-08-18T12:03:21.846Z,26.74
2022-08-18T12:06:09.398Z,26.71
2022-08-18T12:08:57.963Z,27.33
2022-08-18T12:11:51.264Z,27.64
2022-08-18T12:14:30.345Z,28.07
2022-08-18T12:17:01.456Z,28.50
2022-08-18T12:19:31.273Z,28.52
2022-08-18T12:22:13.808Z,29.38
2022-08-18T12:24:41.527Z,28.99
2022-08-18T12:27:21.687Z,28.84
2022-08-18T12:29:51.771Z,27.61
2022-08-18T12:32:41.768Z,27.23
2022-08-18T12:35:13.841Z,27.99
2022-08-18T12:38:11.463Z,28.16
2022-08-18T12:40:33.095Z,27.36
2022-08-18T12:43:01.090Z,27.26
2022-08-18T12:45:31.148Z,26.73
2022-08-18T12:48:04.267Z,25.09
2022-08-18T12:50:36.274Z,24.44
2022-08-18T12:53:05.461Z,24.31
2022-08-18T12:55:37.652Z,24.43
2022-08-18T12:58:12.139Z,25.54
2022-08-18T13:00:41.137Z,25.58
2022-08-18T13:03:09.369Z,26.05
2022-08-18T13:05:38.180Z,24.63
2022-08-18T13:08:13.962Z,24.60
2022-08-18T13:11:00.351Z,24.97
2022-08-18T13:13:44.014Z,26.82
2022-08-18T13:16:16.397Z,29.01
2022-08-18T13:18:57.897Z,28.63
2022-08-18T13:21:27.166Z,29.58
2022-08-18T13:24:07.438Z,31.66
2022-08-18T13:26:42.030Z,31.15
2022-08-18T13:29:10.445Z,32.08
2022-08-18T13:31:39.000Z,32.45
2022-08-18T13:34:11.897Z,31.27
2022-08-18T13:36:46.393Z,32.55
2022-08-18T13:39:22.146Z,34.55
2022-08-18T13:41:52.932Z,34.29
2022-08-18T13:44:22.496Z,32.30
2022-08-18T13:46:56.006Z,34.25
2022-08-18T13:49:29.954Z,36.01
2022-08-18T13:52:00.969Z,35.73
2022-08-18T13:54:35.348Z,34.58
2022-08-18T13:57:05.007Z,35.99
2022-08-18T13:59:35.140Z,35.43
2022-08-18T14:02:08.407Z,33.56
2022-08-18T14:04:38.541Z,33.13
2022-08-18T14:07:10.963Z,30.96
2022-08-18T14:09:40.124Z,29.97
2022-08-18T14:12:27.121Z,28.20
2022-08-18T14:14:57.697Z,29.18
2022-08-18T14:17:26.885Z,29.79
2022-08-18T14:20:14.946Z,28.08
2022-08-18T14:23:02.609Z,28.73
2022-08-18T14:25:50.513Z,28.40
2022-08-18T14:28:19.651Z,28.12
2022-08-18T14:30:55.218Z,27.59
2022-08-18T14:33:51.147Z,27.80
2022-08-18T14:36:14.396Z,28.45
2022-08-18T14:38:42.276Z,29.87
2022-08-18T14:41:13.287Z,30.81
2022-08-18T14:44:10.956Z,31.28
2022-08-18T14:46:32.759Z,30.04
2022-08-18T14:49:03.982Z,29.45
2022-08-18T14:51:33.720Z,29.77
2022-08-18T14:54:02.116Z,29.87
2022-08-18T14:56:33.250Z,29.13
2022-08-18T14:59:07.744Z,28.84
2022-08-18T15:01:42.421Z,30.39
2022-08-18T15:04:18.714Z,30.42
2022-08-18T15:06:55.743Z,33.99
2022-08-18T15:09:27.170Z,34.74
2022-08-18T15:11:58.085Z,34.55
2022-08-18T15:14:33.056Z,36.07
2022-08-18T15:17:11.986Z,36.46
2022-08-18T15:20:00.456Z,36.15
2022-08-18T15:22:47.911Z,34.36
2022-08-18T15:25:54.948Z,34.48
2022-08-18T15:28:27.294Z,34.30
2022-08-18T15:33:42.836Z,37.92
2022-08-18T15:36:10.771Z,36.25
2022-08-18T15:38:43.940Z,35.42
2022-08-18T15:41:28.285Z,36.27
2022-08-18T15:43:58.963Z,36.78
2022-08-18T15:46:27.500Z,38.06
2022-08-18T15:48:55.844Z,37.78
2022-08-18T15:51:23.747Z,38.32
2022-08-18T15:53:52.834Z,38.04
2022-08-18T15:56:25.832Z,36.43
2022-08-18T15:58:53.920Z,36.05
2022-08-18T16:01:32.141Z,36.02
2022-08-18T16:04:03.133Z,35.32
2022-08-18T16:06:33.412Z,34.86
2022-08-18T16:09:04.871Z,35.99
2022-08-18T16:11:32.527Z,36.12
2022-08-18T16:14:00.535Z,36.47
2022-08-18T16:16:35.534Z,37.30
2022-08-18T16:19:07.694Z,37.21
2022-08-18T16:21:39.947Z,36.90
2022-08-18T16:24:08.426Z,35.86
2022-08-18T16:26:36.291Z,35.50
2022-08-18T16:29:05.103Z,35.94
2022-08-18T16:31:33.766Z,35.60
2022-08-18T16:34:01.771Z,36.24
2022-08-18T16:36:30.117Z,36.15
2022-08-18T16:38:58.418Z,36.68
2022-08-18T16:41:27.055Z,36.80
2022-08-18T16:43:56.290Z,35.73
2022-08-18T16:46:27.196Z,35.87
2022-08-18T16:48:56.381Z,34.71
2022-08-18T16:51:26.217Z,34.87
2022-08-18T16:53:54.524Z,34.65
2022-08-18T16:56:25.575Z,34.29
2022-08-18T16:59:12.253Z,33.36
2022-08-18T17:02:00.138Z,34.41
2022-08-18T17:04:33.691Z,33.92
2022-08-18T17:07:04.955Z,34.52
2022-08-18T17:09:33.936Z,33.95
2022-08-18T17:12:02.973Z,34.28
2022-08-18T17:14:32.469Z,33.70
2022-08-18T17:17:00.746Z,33.52
2022-08-18T17:19:33.725Z,33.15
2022-08-18T17:22:05.378Z,33.83
2022-08-18T17:24:33.557Z,33.57
2022-08-18T17:27:27.040Z,31.93
2022-08-18T17:30:12.113Z,31.59
2022-08-18T17:32:50.776Z,30.84
2022-08-18T17:35:28.656Z,30.32
2022-08-18T17:38:32.517Z,28.87
2022-08-18T17:41:01.809Z,28.40
2022-08-18T17:43:33.114Z,27.43
2022-08-18T17:46:06.826Z,26.90
2022-08-18T17:48:42.412Z,26.79
2022-08-18T17:51:43.402Z,26.79
2022-08-18T17:54:19.239Z,26.69
2022-08-18T17:56:53.314Z,26.54
2022-08-18T17:59:46.460Z,26.49
2022-08-18T18:02:29.449Z,26.39
2022-08-18T18:05:03.771Z,26.22
2022-08-18T18:07:38.374Z,26.13
2022-08-18T18:10:14.228Z,26.23
2022-08-18T18:12:41.877Z,26.06
2022-08-18T18:15:12.984Z,26.05
2022-08-18T18:17:43.403Z,25.87
2022-08-18T18:20:16.700Z,25.84
2022-08-18T18:22:45.908Z,25.60
2022-08-18T18:25:29.749Z,25.36
2022-08-18T18:28:02.553Z,25.32
2022-08-18T18:30:31.928Z,25.18
2022-08-18T18:33:03.299Z,24.90
2022-08-18T18:35:55.018Z,24.95
2022-08-18T18:38:35.131Z,24.89
2022-08-18T18:41:06.801Z,24.84
2022-08-18T18:43:35.798Z,24.67
2022-08-18T18:46:06.287Z,24.60
2022-08-18T18:48:51.790Z,24.57
2022-08-18T18:51:43.901Z,24.44
2022-08-18T18:54:33.402Z,24.50
2022-08-18T18:57:04.264Z,24.70
2022-08-18T19:02:49.380Z,24.80
2022-08-18T19:05:21.635Z,24.82
2022-08-18T19:08:02.354Z,24.90
2022-08-18T19:10:30.238Z,24.94
2022-08-18T19:13:03.443Z,24.85
2022-08-18T19:15:37.716Z,24.78
2022-08-18T19:18:26.065Z,24.89
2022-08-18T19:22:01.629Z,24.89
2022-08-18T19:24:02.888Z,24.68
2022-08-18T19:26:51.537Z,24.52
2022-08-18T19:29:25.800Z,24.31
2022-08-18T19:32:08.342Z,24.55
2022-08-18T19:34:51.562Z,24.62
2022-08-18T19:37:31.460Z,24.33
2022-08-18T19:40:12.432Z,24.24
2022-08-18T19:42:44.680Z,24.01
2022-08-18T19:45:40.938Z,23.96
2022-08-18T19:48:23.829Z,24.15
2022-08-18T19:50:56.584Z,24.22
2022-08-18T19:53:59.655Z,24.32
2022-08-18T19:56:58.063Z,24.28
2022-08-18T20:00:11.674Z,24.40
2022-08-18T20:02:44.203Z,24.50
2022-08-18T20:05:40.014Z,24.58
2022-08-18T20:08:26.583Z,24.42
2022-08-18T20:11:14.302Z,24.16
2022-08-18T20:13:44.619Z,24.11
2022-08-18T20:16:12.078Z,24.08
2022-08-18T20:18:49.114Z,24.19
2022-08-18T20:21:17.293Z,24.39
2022-08-18T20:24:05.034Z,24.23
2022-08-18T20:26:36.005Z,24.33
2022-08-18T20:29:39.477Z,24.34
2022-08-18T20:32:20.564Z,24.45
2022-08-18T20:34:51.815Z,24.28
2022-08-18T20:37:27.427Z,24.35
2022-08-18T20:39:55.653Z,24.24
2022-08-18T20:42:23.259Z,24.04
2022-08-18T20:44:59.000Z,24.04
2022-08-18T20:47:42.051Z,24.00
2022-08-18T20:50:21.829Z,24.03
2022-08-18T20:53:08.914Z,24.03
2022-08-18T20:56:32.358Z,24.10
2022-08-18T20:59:20.050Z,24.33
2022-08-18T21:02:03.332Z,23.97
2022-08-18T21:04:33.953Z,24.15
2022-08-18T21:07:11.872Z,24.19
2022-08-18T21:09:50.521Z,24.22
2022-08-18T21:12:24.322Z,24.23
2022-08-18T21:14:54.501Z,24.20
2022-08-18T21:17:26.602Z,24.02
2022-08-18T21:20:04.870Z,24.14
2022-08-18T21:22:34.033Z,24.25
2022-08-18T21:25:02.625Z,24.04
2022-08-18T21:27:40.532Z,24.16
2022-08-18T21:30:22.122Z,23.79
2022-08-18T21:32:50.414Z,23.66
2022-08-18T21:35:28.390Z,23.69
2022-08-18T21:38:06.224Z,23.73
2022-08-18T21:40:48.117Z,23.54
2022-08-18T21:43:52.250Z,23.45
2022-08-18T21:46:26.336Z,23.56
2022-08-18T21:48:56.393Z,23.63
2022-08-18T21:51:49.675Z,23.71
2022-08-18T21:54:22.299Z,23.80
2022-08-18T21:57:21.796Z,23.73
2022-08-18T22:00:23.598Z,23.88
2022-08-18T22:03:11.152Z,23.84
2022-08-18T22:05:58.181Z,23.61
2022-08-18T22:08:31.038Z,23.69
2022-08-18T22:12:00.902Z,23.78
2022-08-18T22:14:36.066Z,23.90
2022-08-18T22:17:35.911Z,23.63
2022-08-18T22:20:43.020Z,23.63
2022-08-18T22:23:32.071Z,23.58
2022-08-18T22:26:22.380Z,23.56
2022-08-18T22:28:55.206Z,23.59
2022-08-18T22:31:25.915Z,23.71
2022-08-18T22:34:00.164Z,23.83
2022-08-18T22:36:32.363Z,23.79
2022-08-18T22:39:01.096Z,23.87
2022-08-18T22:41:29.021Z,23.99
2022-08-18T22:43:58.308Z,23.88
2022-08-18T22:46:26.033Z,23.65
2022-08-18T22:48:54.137Z,23.62
2022-08-18T22:51:25.411Z,23.65
2022-08-18T22:53:53.923Z,23.60
2022-08-18T22:56:22.770Z,23.37
2022-08-18T22:59:13.449Z,23.45
2022-08-18T23:01:46.456Z,23.44
2022-08-18T23:04:16.088Z,23.45
2022-08-18T23:06:51.486Z,23.38
2022-08-18T23:09:23.073Z,23.32
2022-08-18T23:11:52.901Z,23.40
2022-08-18T23:14:20.984Z,23.32
2022-08-18T23:16:49.752Z,23.04
2022-08-18T23:19:19.319Z,23.10
2022-08-18T23:21:48.470Z,22.95
2022-08-18T23:24:17.862Z,22.97
2022-08-18T23:26:46.294Z,22.90
2022-08-18T23:29:14.447Z,22.81
2022-08-18T23:31:44.046Z,22.76
2022-08-18T23:34:14.832Z,22.64
2022-08-18T23:36:45.787Z,22.68
2022-08-18T23:39:14.860Z,22.82
2022-08-18T23:41:42.906Z,22.88
2022-08-18T23:44:13.458Z,22.85
2022-08-18T23:46:44.580Z,22.76
2022-08-18T23:49:14.909Z,22.84
2022-08-18T23:51:46.266Z,22.89
2022-08-18T23:54:17.906Z,22.84
2022-08-18T23:56:46.474Z,22.88
2022-08-18T23:59:15.582Z,22.87
